Time;durP1;ratioP1;P1;durP2;ratioP2;P2;SDS_P1;SDS_P2;PMS_P1;PMS_P2;Temp;Humidity;BMP_temperature;BMP_pressure;BME280_temperature;BME280_humidity;BME280_pressure;Samples;Min_cycle;Max_cycle;Signal;HPM_P1;HPM_P2
2021/07/03 00:02:16;;;;;;;2.98;0.80;;;;;;;21.74;67.52;98596.23;1768972;78;21057;-55
2021/07/03 00:04:43;;;;;;;3.02;0.90;;;;;;;21.71;67.20;98593.83;1765306;78;21130;-56
2021/07/03 00:07:10;;;;;;;1.15;0.70;;;;;;;21.67;67.11;98594.70;1770862;78;20961;-55
2021/07/03 00:09:37;;;;;;;3.67;0.90;;;;;;;21.64;66.84;98594.19;1777080;78;20960;-55
2021/07/03 00:12:08;;;;;;;1.72;0.78;;;;;;;21.60;66.77;98586.84;1773223;78;20937;-55
2021/07/03 00:14:36;;;;;;;2.37;0.70;;;;;;;21.55;66.79;98586.48;1769321;78;20902;-55
2021/07/03 00:17:04;;;;;;;4.45;0.70;;;;;;;21.51;66.68;98588.73;1772790;78;20965;-55
2021/07/03 00:19:32;;;;;;;1.35;0.62;;;;;;;21.48;66.77;98584.09;1770322;78;20986;-55
2021/07/03 00:21:59;;;;;;;1.40;0.70;;;;;;;21.45;66.64;98585.28;1774007;78;20914;-55
2021/07/03 00:24:26;;;;;;;1.62;0.70;;;;;;;21.43;66.68;98583.25;1770303;78;20964;-55
2021/07/03 00:26:52;;;;;;;4.90;0.72;;;;;;;21.41;66.67;98592.14;1773214;78;20925;-55
2021/07/03 00:29:18;;;;;;;2.27;1.07;;;;;;;21.37;66.79;98588.02;1767237;78;21760;-55
2021/07/03 00:31:46;;;;;;;1.00;0.80;;;;;;;21.35;66.90;98582.39;1767421;78;20973;-55
2021/07/03 00:34:12;;;;;;;1.98;0.75;;;;;;;21.31;66.98;98581.86;1771855;78;21396;-55
2021/07/03 00:36:38;;;;;;;1.98;0.80;;;;;;;21.27;67.09;98576.37;1773368;78;20890;-55
2021/07/03 00:39:05;;;;;;;3.08;0.82;;;;;;;21.25;67.15;98574.85;1767354;78;20957;-55
2021/07/03 00:41:31;;;;;;;3.02;0.85;;;;;;;21.22;67.30;98565.09;1749695;79;21086;-55
2021/07/03 00:43:58;;;;;;;3.42;0.70;;;;;;;21.18;67.34;98559.60;1755020;79;20976;-55
2021/07/03 00:46:24;;;;;;;1.92;0.70;;;;;;;21.15;67.46;98560.78;1734937;79;21052;-55
2021/07/03 00:48:53;;;;;;;1.60;0.70;;;;;;;21.14;67.65;98552.23;1732291;79;21112;-56
2021/07/03 00:51:21;;;;;;;0.80;0.70;;;;;;;21.12;67.80;98550.68;1730611;79;21116;-55
2021/07/03 00:53:47;;;;;;;2.30;0.90;;;;;;;21.10;67.90;98548.11;1734954;79;21203;-55
2021/07/03 00:56:14;;;;;;;3.85;1.10;;;;;;;21.09;68.00;98546.94;1735164;79;21061;-55
2021/07/03 00:58:41;;;;;;;2.75;0.88;;;;;;;21.06;68.11;98544.53;1734664;79;21084;-55
2021/07/03 01:01:07;;;;;;;2.22;0.80;;;;;;;21.03;68.16;98545.70;1736727;79;21064;-56
2021/07/03 01:03:34;;;;;;;4.55;0.60;;;;;;;21.02;68.29;98545.36;1733091;79;21784;-56
2021/07/03 01:06:00;;;;;;;3.10;0.90;;;;;;;21.02;68.33;98548.09;1732661;79;21215;-55
2021/07/03 01:08:27;;;;;;;3.50;0.60;;;;;;;21.00;68.43;98543.84;1735500;79;21120;-56
2021/07/03 01:10:54;;;;;;;1.72;0.85;;;;;;;20.98;68.55;98539.91;1740152;79;20917;-55
2021/07/03 01:13:30;;;;;;;3.37;0.90;;;;;;;20.97;68.64;98534.09;1743619;79;21032;-55
2021/07/03 01:16:00;;;;;;;1.37;0.70;;;;;;;20.95;68.76;98532.53;1731986;79;21100;-55
2021/07/03 01:18:28;;;;;;;3.15;0.70;;;;;;;20.94;68.87;98529.45;1730649;79;22188;-55
2021/07/03 01:20:54;;;;;;;3.95;0.82;;;;;;;20.93;68.91;98529.96;1707232;80;21509;-55
2021/07/03 01:23:22;;;;;;;3.10;0.90;;;;;;;20.91;69.01;98529.30;1730211;79;21116;-55
2021/07/03 01:25:57;;;;;;;1.80;0.88;;;;;;;20.89;69.06;98525.88;1734346;79;21118;-55
2021/07/03 01:28:24;;;;;;;2.35;0.70;;;;;;;20.88;69.18;98523.30;1724086;79;21600;-55
2021/07/03 01:30:52;;;;;;;2.92;0.62;;;;;;;20.86;69.32;98528.07;1745101;79;21452;-55
2021/07/03 01:33:19;;;;;;;2.50;0.70;;;;;;;20.84;69.51;98522.77;1736539;79;21013;-55
2021/07/03 01:35:45;;;;;;;1.07;0.65;;;;;;;20.83;69.67;98525.70;1713348;80;21044;-55
2021/07/03 01:38:20;;;;;;;3.27;1.20;;;;;;;20.83;69.74;98525.70;1733055;79;21080;-55
2021/07/03 01:40:47;;;;;;;2.42;0.90;;;;;;;20.82;69.80;98526.20;1739941;79;21038;-55
2021/07/03 01:43:23;;;;;;;1.65;1.07;;;;;;;20.81;69.90;98533.20;1737426;80;21053;-55
2021/07/03 01:45:51;;;;;;;3.95;1.00;;;;;;;20.79;70.05;98529.27;1762263;78;21091;-55
2021/07/03 01:48:27;;;;;;;1.15;0.70;;;;;;;20.77;70.19;98525.83;1767486;78;21104;-55
2021/07/03 01:50:54;;;;;;;3.45;0.72;;;;;;;20.75;70.34;98530.13;1764311;78;21172;-55
2021/07/03 01:53:22;;;;;;;3.62;0.80;;;;;;;20.75;70.48;98533.38;1733303;80;21099;-58
2021/07/03 01:55:50;;;;;;;0.82;0.72;;;;;;;20.74;70.62;98537.13;1735306;80;21179;-57
2021/07/03 01:58:22;;;;;;;3.10;0.90;;;;;;;20.72;70.77;98535.92;1744118;79;21139;-55
2021/07/03 02:00:53;;;;;;;2.15;0.98;;;;;;;20.72;70.87;98537.80;1747373;79;21573;-55
2021/07/03 02:03:21;;;;;;;2.15;1.00;;;;;;;20.71;71.00;98533.35;1750329;79;20893;-55
2021/07/03 02:05:48;;;;;;;2.92;1.12;;;;;;;20.71;71.21;98538.82;1745217;79;21650;-55
2021/07/03 02:08:16;;;;;;;1.10;1.00;;;;;;;20.71;71.39;98536.09;1753565;79;22652;-55
2021/07/03 02:10:44;;;;;;;3.67;1.10;;;;;;;20.72;71.50;98536.44;1726098;80;21225;-55
2021/07/03 02:13:12;;;;;;;3.35;1.00;;;;;;;20.73;71.76;98528.58;1737211;80;21047;-55
2021/07/03 02:15:39;;;;;;;2.37;0.95;;;;;;;20.74;72.02;98528.42;1737791;80;21116;-55
2021/07/03 02:18:11;;;;;;;1.80;1.05;;;;;;;20.75;72.25;98530.64;1758557;78;21048;-55
2021/07/03 02:20:38;;;;;;;2.65;0.93;;;;;;;20.75;72.57;98537.48;1708119;80;21086;-55
2021/07/03 02:23:08;;;;;;;5.85;1.77;;;;;;;20.74;72.87;98542.09;1762415;78;21385;-55
2021/07/03 02:25:35;;;;;;;4.95;1.75;;;;;;;20.75;73.15;98532.01;1737040;80;21077;-55
2021/07/03 02:28:03;;;;;;;2.08;1.27;;;;;;;20.79;73.38;98533.37;1735360;80;21100;-55
2021/07/03 02:30:31;;;;;;;2.90;1.47;;;;;;;20.82;73.59;98530.31;1770603;78;20964;-54
2021/07/03 02:32:59;;;;;;;2.42;1.42;;;;;;;20.83;73.92;98532.02;1714065;80;21127;-55
2021/07/03 02:35:27;;;;;;;0.88;0.88;;;;;;;20.84;73.88;98532.88;1733781;80;21334;-54
2021/07/03 02:37:54;;;;;;;4.67;0.95;;;;;;;20.83;73.69;98529.80;1761821;78;21753;-55
2021/07/03 02:40:21;;;;;;;1.57;0.70;;;;;;;20.78;73.51;98531.14;1762614;78;21164;-53
2021/07/03 02:42:49;;;;;;;2.37;0.65;;;;;;;20.74;73.47;98535.25;1738464;80;21004;-54
2021/07/03 02:45:17;;;;;;;0.75;0.60;;;;;;;20.73;73.45;98535.41;1757170;80;21069;-54
2021/07/03 02:47:45;;;;;;;1.42;0.60;;;;;;;20.72;73.53;98541.91;1738268;80;21004;-54
2021/07/03 02:50:14;;;;;;;1.07;0.60;;;;;;;20.70;73.61;98542.06;1746777;79;21114;-55
2021/07/03 02:52:43;;;;;;;3.15;0.57;;;;;;;20.71;73.74;98543.78;1748090;79;21119;-55
2021/07/03 02:55:11;;;;;;;0.60;0.60;;;;;;;20.72;73.86;98543.27;1744298;79;21052;-55
2021/07/03 02:57:38;;;;;;;1.95;0.98;;;;;;;20.72;73.99;98543.27;1745770;79;21188;-54
2021/07/03 03:00:11;;;;;;;0.70;0.70;;;;;;;20.73;74.09;98543.62;1763245;78;20978;-55
2021/07/03 03:02:37;;;;;;;1.25;0.70;;;;;;;20.77;74.12;98550.45;1745119;80;20941;-55
2021/07/03 03:05:06;;;;;;;0.90;0.80;;;;;;;20.79;74.21;98548.41;1771463;78;21407;-55
2021/07/03 03:07:36;;;;;;;3.05;1.00;;;;;;;20.83;74.19;98552.53;1764376;78;20921;-55
2021/07/03 03:10:04;;;;;;;0.70;0.70;;;;;;;20.86;74.16;98551.32;1718740;80;21119;-55
2021/07/03 03:12:31;;;;;;;1.67;0.70;;;;;;;20.88;74.16;98551.51;1742885;79;20986;-55
2021/07/03 03:14:58;;;;;;;0.60;0.60;;;;;;;20.91;74.16;98553.92;1750051;79;21816;-55
2021/07/03 03:17:24;;;;;;;0.68;0.68;;;;;;;20.91;74.18;98555.28;1748308;79;20916;-55
2021/07/03 03:19:51;;;;;;;1.02;0.70;;;;;;;20.92;74.21;98550.67;1748060;79;21331;-55
2021/07/03 03:22:17;;;;;;;0.70;0.60;;;;;;;20.94;74.29;98554.92;1749770;79;21397;-55
2021/07/03 03:24:45;;;;;;;0.72;0.57;;;;;;;20.97;74.30;98557.84;1729569;79;21552;-55
2021/07/03 03:27:13;;;;;;;2.47;0.80;;;;;;;20.98;74.28;98553.58;1752454;79;20945;-55
2021/07/03 03:29:39;;;;;;;0.85;0.80;;;;;;;21.01;74.39;98559.23;1750630;79;20902;-55
2021/07/03 03:32:07;;;;;;;0.60;0.60;;;;;;;21.04;74.42;98557.00;1752368;79;21342;-55
2021/07/03 03:34:34;;;;;;;1.95;0.65;;;;;;;21.07;74.41;98557.19;1725202;79;21098;-54
2021/07/03 03:37:03;;;;;;;1.17;0.70;;;;;;;21.08;74.16;98563.86;1748817;79;20925;-54
2021/07/03 03:39:31;;;;;;;0.62;0.60;;;;;;;21.07;74.06;98558.55;1748671;79;20909;-54
2021/07/03 03:41:58;;;;;;;2.25;0.70;;;;;;;21.08;73.92;98558.90;1750231;79;20994;-55
2021/07/03 03:44:25;;;;;;;1.70;0.55;;;;;;;21.07;73.98;98560.78;1750309;79;20944;-55
2021/07/03 03:46:52;;;;;;;1.12;0.70;;;;;;;21.08;73.97;98557.02;1747251;79;21783;-54
2021/07/03 03:49:20;;;;;;;1.10;0.60;;;;;;;21.12;73.92;98558.89;1745675;79;21084;-54
2021/07/03 03:51:49;;;;;;;0.62;0.60;;;;;;;21.16;73.87;98565.75;1747366;79;21075;-54
2021/07/03 03:54:16;;;;;;;0.70;0.70;;;;;;;21.21;73.86;98562.52;1748221;79;21127;-54
2021/07/03 03:56:43;;;;;;;0.82;0.80;;;;;;;21.27;73.75;98565.94;1747396;80;21111;-54
2021/07/03 03:59:11;;;;;;;0.93;0.70;;;;;;;21.30;73.70;98569.72;1734646;80;21119;-55
2021/07/03 04:01:38;;;;;;;0.88;0.82;;;;;;;21.32;73.72;98572.63;1761822;78;21662;-55
2021/07/03 04:04:05;;;;;;;1.22;0.80;;;;;;;21.36;73.69;98568.52;1742426;80;21404;-55
2021/07/03 04:06:32;;;;;;;0.90;0.78;;;;;;;21.39;73.62;98572.29;1748272;79;21111;-54
2021/07/03 04:08:59;;;;;;;0.78;0.78;;;;;;;21.41;73.33;98574.86;1751376;79;21048;-55
2021/07/03 04:11:28;;;;;;;1.05;0.78;;;;;;;21.40;73.35;98574.52;1748549;79;20925;-54
2021/07/03 04:13:55;;;;;;;0.80;0.80;;;;;;;21.40;73.22;98571.27;1762801;78;20964;-55
2021/07/03 04:16:21;;;;;;;1.17;0.80;;;;;;;21.44;73.13;98566.28;1738583;80;21088;-55
2021/07/03 04:18:47;;;;;;;0.90;0.90;;;;;;;21.50;72.89;98571.95;1773449;78;21039;-55
2021/07/03 04:21:14;;;;;;;1.85;0.80;;;;;;;21.55;72.59;98567.83;1751057;80;21043;-55
2021/07/03 04:23:40;;;;;;;0.95;0.90;;;;;;;21.59;72.37;98578.28;1767177;78;22641;-55
2021/07/03 04:26:06;;;;;;;1.37;1.05;;;;;;;21.63;72.16;98574.67;1761685;78;21055;-56
2021/07/03 04:28:33;;;;;;;0.90;0.90;;;;;;;21.65;71.91;98566.63;1736720;80;21373;-55
2021/07/03 04:31:00;;;;;;;1.10;0.70;;;;;;;21.68;71.89;98575.03;1772654;78;21966;-55
2021/07/03 04:33:26;;;;;;;4.03;1.32;;;;;;;21.71;71.97;98567.81;1762158;78;21091;-55
2021/07/03 04:35:53;;;;;;;1.00;0.80;;;;;;;21.74;71.88;98571.08;1774337;78;21141;-55
2021/07/03 04:38:19;;;;;;;1.20;0.75;;;;;;;21.77;71.99;98571.25;1739025;80;21112;-54
2021/07/03 04:40:46;;;;;;;0.80;0.80;;;;;;;21.80;71.81;98570.38;1765756;78;21040;-54
2021/07/03 04:43:12;;;;;;;0.90;0.90;;;;;;;21.86;71.60;98571.58;1741054;79;21077;-53
2021/07/03 04:45:40;;;;;;;1.40;1.00;;;;;;;21.91;71.43;98570.53;1745576;79;21414;-55
2021/07/03 04:48:07;;;;;;;1.10;1.00;;;;;;;21.96;70.89;98564.52;1736188;79;21005;-53
2021/07/03 04:50:35;;;;;;;1.85;1.12;;;;;;;21.99;70.77;98566.95;1708145;79;21056;-54
2021/07/03 04:53:01;;;;;;;0.95;0.90;;;;;;;22.00;70.76;98570.89;1733952;79;21585;-53
2021/07/03 04:55:28;;;;;;;0.70;0.70;;;;;;;22.01;70.75;98569.02;1747066;79;21519;-54
2021/07/03 04:57:56;;;;;;;0.70;0.65;;;;;;;22.04;70.69;98567.27;1740471;79;21092;-53
2021/07/03 05:00:23;;;;;;;0.65;0.60;;;;;;;22.04;70.37;98561.28;1735632;79;21428;-54
2021/07/03 05:02:49;;;;;;;0.80;0.80;;;;;;;22.08;69.94;98563.16;1737927;79;21056;-54
2021/07/03 05:05:16;;;;;;;0.80;0.80;;;;;;;22.12;69.80;98563.14;1742268;79;21119;-53
2021/07/03 05:07:45;;;;;;;1.00;0.78;;;;;;;22.15;69.26;98558.17;1733552;79;21140;-55
2021/07/03 05:10:13;;;;;;;2.25;0.70;;;;;;;22.23;69.11;98566.88;1733002;79;22082;-55
2021/07/03 05:12:40;;;;;;;1.00;0.88;;;;;;;22.30;68.86;98558.80;1741033;79;21097;-54
2021/07/03 05:15:09;;;;;;;0.70;0.70;;;;;;;22.35;68.61;98553.14;1747326;79;21043;-55
2021/07/03 05:17:35;;;;;;;0.70;0.70;;;;;;;22.41;68.41;98549.69;1729508;80;21548;-54
2021/07/03 05:20:05;;;;;;;0.60;0.60;;;;;;;22.47;68.04;98550.33;1738459;79;21419;-54
2021/07/03 05:22:32;;;;;;;1.60;0.60;;;;;;;22.55;67.06;98557.16;1738682;79;21087;-53
2021/07/03 05:24:58;;;;;;;0.70;0.70;;;;;;;22.65;66.90;98556.42;1736512;79;21100;-54
2021/07/03 05:27:24;;;;;;;1.05;0.75;;;;;;;22.76;66.53;98551.09;1739378;79;21056;-54
2021/07/03 05:29:51;;;;;;;1.00;0.62;;;;;;;22.87;66.07;98559.44;1740162;79;21466;-54
2021/07/03 05:32:17;;;;;;;0.80;0.70;;;;;;;22.94;65.56;98549.44;1739921;79;21147;-53
2021/07/03 05:34:44;;;;;;;1.67;0.75;;;;;;;23.01;65.50;98556.77;1747617;79;21072;-54
2021/07/03 05:37:10;;;;;;;1.02;0.60;;;;;;;23.09;65.16;98550.88;1742198;79;22090;-55
2021/07/03 05:39:37;;;;;;;0.60;0.60;;;;;;;23.14;65.22;98557.52;1748684;79;21740;-57
2021/07/03 05:42:03;;;;;;;0.62;0.62;;;;;;;23.22;65.08;98558.83;1732793;79;22439;-53
2021/07/03 05:44:29;;;;;;;0.60;0.60;;;;;;;23.31;64.46;98552.77;1737168;79;21235;-55
2021/07/03 05:46:56;;;;;;;1.52;0.70;;;;;;;23.39;63.95;98558.22;1746072;79;21067;-54
2021/07/03 05:49:22;;;;;;;0.90;0.70;;;;;;;23.45;63.73;98550.61;1747419;79;22724;-55
2021/07/03 05:51:49;;;;;;;2.65;0.62;;;;;;;23.53;63.55;98556.58;1748513;79;21529;-55
2021/07/03 05:54:15;;;;;;;1.57;0.80;;;;;;;23.59;63.46;98562.18;1744106;79;21048;-54
2021/07/03 05:59:40;;;;;;;0.70;0.70;;;;;;;23.74;63.27;98556.71;1791693;78;22341;-54
2021/07/03 06:02:06;;;;;;;1.35;0.78;;;;;;;23.72;63.25;98569.28;1762980;78;22208;-53
2021/07/03 06:04:32;;;;;;;0.95;0.70;;;;;;;23.74;63.35;98569.08;1767258;79;21165;-53
2021/07/03 06:07:00;;;;;;;0.85;0.85;;;;;;;23.76;62.96;98565.63;1765378;78;20924;-54
2021/07/03 06:09:26;;;;;;;1.32;0.75;;;;;;;23.79;62.51;98561.14;1768926;78;20899;-53
2021/07/03 06:11:52;;;;;;;0.70;0.70;;;;;;;23.85;62.31;98567.78;1768722;79;20930;-53
2021/07/03 06:14:18;;;;;;;0.98;0.70;;;;;;;23.90;62.12;98563.45;1766992;79;22506;-53
2021/07/03 06:16:45;;;;;;;0.70;0.70;;;;;;;23.91;61.79;98564.27;1770178;79;21511;-53
2021/07/03 06:19:11;;;;;;;0.80;0.80;;;;;;;23.86;61.47;98559.87;1738514;80;20948;-53
2021/07/03 06:21:37;;;;;;;0.60;0.60;;;;;;;23.80;61.63;98555.98;1766809;79;20871;-52
2021/07/03 06:24:07;;;;;;;0.90;0.70;;;;;;;23.79;61.56;98563.03;1770791;79;20988;-53
2021/07/03 06:26:32;;;;;;;1.67;0.70;;;;;;;23.77;61.50;98554.98;1770375;79;20958;-54
2021/07/03 06:28:58;;;;;;;0.65;0.65;;;;;;;23.79;61.84;98552.05;1766391;79;21427;-54
2021/07/03 06:31:25;;;;;;;0.80;0.62;;;;;;;23.85;62.42;98545.28;1768250;79;21543;-52
2021/07/03 06:33:51;;;;;;;1.32;0.65;;;;;;;23.97;62.26;98553.41;1733075;81;21034;-54
2021/07/03 06:36:19;;;;;;;1.07;0.60;;;;;;;24.05;62.28;98552.47;1709252;81;21069;-53
2021/07/03 06:38:46;;;;;;;0.70;0.70;;;;;;;24.16;62.57;98548.41;1705392;83;21058;-53
2021/07/03 06:41:12;;;;;;;1.52;0.80;;;;;;;24.25;62.43;98541.25;1709415;83;21164;-53
2021/07/03 06:43:38;;;;;;;1.07;0.80;;;;;;;24.32;61.74;98545.50;1672656;83;21077;-54
2021/07/03 06:46:05;;;;;;;1.60;0.80;;;;;;;24.39;61.33;98543.16;1684582;84;21344;-54
2021/07/03 06:48:31;;;;;;;0.70;0.70;;;;;;;24.44;60.92;98543.43;1685458;84;21070;-53
2021/07/03 06:50:58;;;;;;;0.78;0.78;;;;;;;24.48;60.83;98554.40;1684195;83;21068;-53
2021/07/03 06:53:24;;;;;;;4.30;0.60;;;;;;;24.51;61.28;98554.52;1686066;84;21099;-53
2021/07/03 06:55:51;;;;;;;0.68;0.68;;;;;;;24.57;61.06;98567.52;1685660;82;21193;-52
2021/07/03 06:58:17;;;;;;;0.60;0.60;;;;;;;24.59;60.95;98567.30;1683317;83;21425;-52
2021/07/03 07:00:43;;;;;;;1.52;0.70;;;;;;;24.59;61.02;98568.68;1669085;84;21100;-53
2021/07/03 07:03:10;;;;;;;2.00;0.72;;;;;;;24.59;60.56;98565.93;1670303;84;21091;-55
2021/07/03 07:05:36;;;;;;;2.65;0.88;;;;;;;24.60;60.75;98565.75;1673818;84;22239;-55
2021/07/03 07:08:04;;;;;;;0.80;0.60;;;;;;;24.60;60.39;98567.13;1670923;84;21937;-58
2021/07/03 07:10:32;;;;;;;3.67;0.70;;;;;;;24.62;60.04;98570.55;1713522;82;21086;-55
2021/07/03 07:13:07;;;;;;;2.08;0.70;;;;;;;24.67;59.83;98577.69;1684729;83;21105;-55
2021/07/03 07:15:34;;;;;;;0.60;0.60;;;;;;;24.70;59.64;98579.21;1716606;81;21800;-55
2021/07/03 07:18:00;;;;;;;0.60;0.60;;;;;;;24.73;59.75;98578.84;1719672;82;21153;-55
2021/07/03 07:20:26;;;;;;;0.85;0.70;;;;;;;24.74;59.73;98581.41;1718466;82;21106;-56
2021/07/03 07:22:52;;;;;;;1.57;0.70;;;;;;;24.75;59.20;98583.08;1722415;82;21082;-56
2021/07/03 07:25:20;;;;;;;0.60;0.60;;;;;;;24.78;59.19;98588.21;1717229;82;21101;-54
2021/07/03 07:27:46;;;;;;;0.80;0.60;;;;;;;24.82;59.47;98582.67;1719522;82;21627;-56
2021/07/03 07:30:18;;;;;;;0.70;0.50;;;;;;;24.84;59.24;98586.06;1715365;82;21101;-57
2021/07/03 07:32:44;;;;;;;1.32;0.70;;;;;;;24.88;58.58;98588.77;1719067;82;21882;-56
2021/07/03 07:35:10;;;;;;;2.17;0.60;;;;;;;24.91;58.44;98589.44;1716175;81;22098;-55
2021/07/03 07:37:37;;;;;;;2.83;0.90;;;;;;;24.96;58.80;98596.61;1716444;82;21085;-56
2021/07/03 07:40:05;;;;;;;0.90;0.70;;;;;;;24.98;59.23;98587.64;1716641;82;21077;-56
2021/07/03 07:42:31;;;;;;;1.00;0.70;;;;;;;25.03;59.02;98587.38;1723157;81;21120;-55
2021/07/03 07:44:57;;;;;;;2.42;0.60;;;;;;;25.08;59.44;98584.92;1714533;82;21435;-56
2021/07/03 07:47:24;;;;;;;0.60;0.60;;;;;;;25.19;59.83;98590.41;1718851;82;22478;-57
2021/07/03 07:49:52;;;;;;;3.20;0.55;;;;;;;25.31;59.64;98583.36;1719243;82;21034;-57
2021/07/03 07:52:18;;;;;;;1.22;0.70;;;;;;;25.47;59.42;98586.38;1717445;82;21058;-56
2021/07/03 07:54:45;;;;;;;1.17;1.07;;;;;;;25.60;58.72;98595.64;1718628;82;21113;-56
2021/07/03 07:57:11;;;;;;;1.80;0.70;;;;;;;25.76;58.72;98586.28;1718665;82;21076;-56
2021/07/03 07:59:37;;;;;;;0.60;0.60;;;;;;;25.86;56.89;98593.66;1708445;82;21097;-55
2021/07/03 08:02:04;;;;;;;0.50;0.50;;;;;;;25.88;56.53;98592.08;1702985;82;21354;-55
2021/07/03 08:04:30;;;;;;;0.60;0.60;;;;;;;25.90;57.33;98589.98;1705693;82;21383;-55
2021/07/03 08:06:58;;;;;;;0.70;0.70;;;;;;;25.93;57.16;98587.70;1705748;82;22271;-56
2021/07/03 08:09:26;;;;;;;2.70;0.70;;;;;;;25.95;57.34;98576.44;1705847;82;21532;-55
2021/07/03 08:11:52;;;;;;;0.60;0.60;;;;;;;25.95;57.85;98581.95;1671398;84;21775;-55
2021/07/03 08:14:18;;;;;;;0.65;0.60;;;;;;;25.91;57.34;98593.07;1667752;84;21120;-56
2021/07/03 08:16:46;;;;;;;0.78;0.60;;;;;;;25.81;57.46;98596.17;1672141;84;21113;-55
2021/07/03 08:19:13;;;;;;;0.60;0.50;;;;;;;25.71;57.65;98597.55;1707208;82;21615;-56
2021/07/03 08:21:40;;;;;;;0.70;0.70;;;;;;;25.64;57.52;98597.50;1705717;82;21304;-55
2021/07/03 08:24:06;;;;;;;0.80;0.70;;;;;;;25.63;57.75;98600.77;1704504;82;21168;-55
2021/07/03 08:26:33;;;;;;;2.15;0.80;;;;;;;25.61;58.70;98602.86;1704046;82;21093;-55
2021/07/03 08:28:59;;;;;;;1.22;0.70;;;;;;;25.63;58.39;98603.53;1703567;82;21112;-54
2021/07/03 08:31:26;;;;;;;1.15;0.70;;;;;;;25.61;58.51;98602.86;1705593;82;22864;-55
2021/07/03 08:33:52;;;;;;;2.15;0.80;;;;;;;25.59;58.35;98602.76;1708301;82;21443;-55
2021/07/03 08:36:21;;;;;;;0.90;0.90;;;;;;;25.55;57.91;98605.53;1707257;82;22881;-54
2021/07/03 08:38:47;;;;;;;0.60;0.60;;;;;;;25.51;57.83;98602.33;1709167;82;21323;-55
2021/07/03 08:41:13;;;;;;;0.70;0.68;;;;;;;25.49;57.34;98604.42;1706630;82;20998;-55
2021/07/03 08:43:45;;;;;;;1.00;0.65;;;;;;;25.52;57.07;98604.56;1705689;82;21158;-55
2021/07/03 08:46:12;;;;;;;1.40;0.70;;;;;;;25.52;57.27;98603.19;1707123;82;21156;-55
2021/07/03 08:48:39;;;;;;;0.93;0.72;;;;;;;25.52;56.75;98602.64;1705609;82;21204;-55
2021/07/03 08:51:05;;;;;;;1.27;0.60;;;;;;;25.55;56.43;98598.13;1705658;82;21101;-55
2021/07/03 08:53:31;;;;;;;4.28;0.80;;;;;;;25.60;57.15;98595.64;1662998;84;21746;-56
2021/07/03 08:55:59;;;;;;;0.93;0.72;;;;;;;25.66;56.69;98595.40;1704118;82;21561;-57
2021/07/03 08:58:25;;;;;;;0.65;0.50;;;;;;;25.75;57.36;98594.73;1706661;82;22443;-56
2021/07/03 09:00:51;;;;;;;1.75;0.60;;;;;;;25.86;56.32;98599.17;1704101;82;21082;-56
2021/07/03 09:03:21;;;;;;;3.62;0.80;;;;;;;25.92;55.17;98593.41;1705507;82;21374;-57
2021/07/03 09:05:50;;;;;;;1.10;0.80;;;;;;;26.04;54.95;98586.27;1706463;82;21710;-56
2021/07/03 09:08:17;;;;;;;1.95;0.70;;;;;;;26.15;54.85;98590.39;1675051;84;21054;-55
2021/07/03 09:10:44;;;;;;;1.00;0.70;;;;;;;26.22;53.96;98584.39;1666741;84;20943;-56
2021/07/03 09:13:10;;;;;;;0.80;0.70;;;;;;;26.31;53.97;98575.79;1657590;84;20906;-56
2021/07/03 09:15:42;;;;;;;2.58;0.70;;;;;;;26.37;54.09;98579.11;1712452;82;21615;-57
2021/07/03 09:18:12;;;;;;;1.65;0.70;;;;;;;26.41;53.74;98585.61;1710850;82;20974;-56
2021/07/03 09:20:44;;;;;;;1.10;0.70;;;;;;;26.38;53.59;98579.44;1711168;82;21026;-56
2021/07/03 09:23:24;;;;;;;1.35;0.65;;;;;;;26.40;53.67;98579.77;1709040;82;21384;-56
2021/07/03 09:25:54;;;;;;;0.70;0.70;;;;;;;26.35;53.89;98572.97;1702741;82;20935;-55
2021/07/03 09:28:30;;;;;;;0.93;0.78;;;;;;;26.31;53.64;98567.52;1707491;82;20903;-56
2021/07/03 09:31:00;;;;;;;1.35;0.60;;;;;;;26.28;53.08;98573.98;1710185;82;20970;-56
2021/07/03 09:33:40;;;;;;;0.90;0.80;;;;;;;26.31;53.43;98571.66;1712530;82;21105;-57
2021/07/03 09:36:09;;;;;;;2.25;0.60;;;;;;;26.31;53.58;98567.52;1707112;82;20950;-55
2021/07/03 09:38:39;;;;;;;1.10;0.68;;;;;;;26.35;53.36;98571.59;1705401;82;20936;-56
2021/07/03 09:41:19;;;;;;;1.22;0.90;;;;;;;26.41;52.96;98576.81;1702664;82;20915;-55
2021/07/03 09:43:53;;;;;;;0.60;0.60;;;;;;;26.45;53.81;98572.61;1679935;82;21394;-56
2021/07/03 09:46:40;;;;;;;0.65;0.65;;;;;;;26.51;53.57;98565.41;1708847;82;22213;-56
2021/07/03 09:49:12;;;;;;;2.85;0.60;;;;;;;26.55;52.38;98570.30;1714371;82;20923;-55
2021/07/03 09:51:46;;;;;;;2.12;0.65;;;;;;;26.59;52.13;98572.98;1699745;82;21366;-55
2021/07/03 09:54:15;;;;;;;0.75;0.60;;;;;;;26.62;52.36;98569.83;1707487;82;20903;-55
2021/07/03 09:56:42;;;;;;;0.80;0.62;;;;;;;26.62;52.30;98569.83;1706024;82;20899;-55
2021/07/03 09:59:09;;;;;;;0.53;0.53;;;;;;;26.62;51.97;98567.07;1706543;82;22317;-55
2021/07/03 10:01:40;;;;;;;1.52;0.60;;;;;;;26.69;51.79;98570.70;1726251;82;21865;-57
2021/07/03 10:04:04;;;;;;;2.15;0.85;;;;;;;26.75;51.73;98572.64;1727160;82;21113;-56
2021/07/03 10:07:02;;;;;;;1.67;0.70;;;;;;;26.85;52.00;98568.13;1724968;82;21164;-56
2021/07/03 10:09:45;;;;;;;0.60;0.60;;;;;;;26.96;52.76;98564.80;1689439;82;21017;-57
2021/07/03 10:12:15;;;;;;;0.72;0.60;;;;;;;27.06;52.86;98563.00;1717554;82;21123;-56
2021/07/03 10:14:45;;;;;;;0.62;0.60;;;;;;;27.13;52.27;98569.95;1723153;82;21105;-56
2021/07/03 10:17:11;;;;;;;4.30;0.70;;;;;;;27.16;51.63;98552.42;1729367;82;21492;-58
2021/07/03 10:19:39;;;;;;;0.70;0.70;;;;;;;27.19;51.98;98556.16;1721896;82;21485;-57
2021/07/03 10:22:25;;;;;;;2.47;0.60;;;;;;;27.21;51.86;98542.99;1723302;82;21073;-56
2021/07/03 10:24:54;;;;;;;2.90;0.78;;;;;;;27.24;51.31;98542.55;1725511;82;21449;-57
2021/07/03 10:27:28;;;;;;;0.60;0.60;;;;;;;27.25;51.86;98541.50;1646203;84;21046;-56
2021/07/03 10:29:58;;;;;;;2.15;0.50;;;;;;;27.25;50.97;98540.12;1728401;82;21085;-55
2021/07/03 10:32:36;;;;;;;0.70;0.60;;;;;;;27.23;50.89;98539.47;1724757;82;20973;-56
2021/07/03 10:35:15;;;;;;;1.57;0.50;;;;;;;27.26;50.30;98538.20;1727745;82;21121;-56
2021/07/03 10:37:42;;;;;;;0.88;0.57;;;;;;;27.24;49.39;98532.03;1728464;82;21504;-56
2021/07/03 10:40:19;;;;;;;0.55;0.50;;;;;;;27.28;49.52;98527.28;1724902;82;21070;-57
2021/07/03 10:42:48;;;;;;;4.10;0.60;;;;;;;27.35;50.88;98528.66;1723603;82;21077;-57
2021/07/03 10:45:23;;;;;;;1.17;0.90;;;;;;;27.48;51.59;98539.72;1663787;84;21119;-56
2021/07/03 10:47:51;;;;;;;0.60;0.50;;;;;;;27.60;50.46;98539.98;1722192;82;21324;-55
2021/07/03 10:50:26;;;;;;;0.55;0.50;;;;;;;27.74;50.80;98538.38;1725287;82;21133;-56
2021/07/03 10:52:54;;;;;;;1.75;0.70;;;;;;;27.86;50.33;98540.84;1724969;82;21033;-56
2021/07/03 10:55:32;;;;;;;1.30;0.50;;;;;;;27.99;50.14;98541.34;1725377;82;21077;-57
2021/07/03 10:58:00;;;;;;;1.22;0.50;;;;;;;28.09;49.66;98546.45;1725835;82;20899;-56
2021/07/03 11:00:26;;;;;;;1.27;0.50;;;;;;;28.09;48.35;98548.68;1723696;82;21114;-57
2021/07/03 11:02:53;;;;;;;1.45;0.50;;;;;;;28.08;48.34;98548.89;1724990;82;22961;-56
2021/07/03 11:05:19;;;;;;;1.50;0.60;;;;;;;28.08;47.89;98548.89;1724599;82;22225;-56
2021/07/03 11:07:46;;;;;;;2.15;0.50;;;;;;;28.05;47.71;98544.66;1726246;82;21129;-55
2021/07/03 11:10:28;;;;;;;0.50;0.50;;;;;;;27.95;48.17;98544.23;1722992;82;21164;-55
2021/07/03 11:12:56;;;;;;;2.08;0.50;;;;;;;27.88;49.20;98549.45;1732133;82;21440;-56
2021/07/03 11:15:27;;;;;;;0.60;0.47;;;;;;;27.80;48.70;98544.47;1673171;84;21107;-55
2021/07/03 11:17:58;;;;;;;0.75;0.50;;;;;;;27.67;48.07;98554.66;1680026;84;21486;-55
2021/07/03 11:20:27;;;;;;;1.85;0.60;;;;;;;27.60;48.64;98556.04;1665885;83;21139;-57
2021/07/03 11:22:55;;;;;;;0.53;0.50;;;;;;;27.51;49.16;98555.89;1727002;82;21418;-55
2021/07/03 11:25:35;;;;;;;0.50;0.50;;;;;;;27.45;49.54;98547.92;1727566;82;21555;-55
2021/07/03 11:28:13;;;;;;;0.50;0.50;;;;;;;27.44;49.78;98546.74;1728880;82;21031;-55
2021/07/03 11:30:44;;;;;;;1.95;0.45;;;;;;;27.50;50.88;98540.36;1724830;82;21081;-55
2021/07/03 11:33:10;;;;;;;0.60;0.50;;;;;;;27.51;50.44;98540.69;1731673;82;21394;-56
2021/07/03 11:35:41;;;;;;;1.37;0.40;;;;;;;27.59;49.93;98541.04;1729981;82;21479;-55
2021/07/03 11:38:07;;;;;;;0.62;0.60;;;;;;;27.63;49.26;98526.60;1727222;82;21101;-55
2021/07/03 11:40:34;;;;;;;0.62;0.50;;;;;;;27.64;49.50;98521.40;1727115;82;22290;-58
2021/07/03 11:43:03;;;;;;;1.50;0.60;;;;;;;27.68;49.10;98522.66;1729148;82;21540;-57